createdAt,value
2022-10-06T00:00:39.281Z,2.30
2022-10-06T00:03:06.080Z,3.87
2022-10-06T00:05:33.042Z,2.63
2022-10-06T00:08:01.042Z,3.27
2022-10-06T00:10:27.979Z,3.57
2022-10-06T00:12:57.516Z,3.00
2022-10-06T00:15:29.416Z,3.13
2022-10-06T00:17:57.205Z,2.57
2022-10-06T00:20:28.325Z,3.23
2022-10-06T00:22:57.061Z,2.67
2022-10-06T00:25:25.094Z,3.17
2022-10-06T00:27:59.631Z,3.17
2022-10-06T00:30:28.583Z,3.10
2022-10-06T00:32:57.366Z,3.07
2022-10-06T00:35:29.771Z,2.63
2022-10-06T00:37:56.478Z,3.10
2022-10-06T00:40:23.789Z,2.70
2022-10-06T00:42:50.488Z,2.83
2022-10-06T00:45:21.038Z,3.63
2022-10-06T00:47:49.681Z,3.23
2022-10-06T00:50:18.448Z,2.50
2022-10-06T00:52:45.569Z,2.87
2022-10-06T00:55:13.438Z,2.73
2022-10-06T00:57:41.203Z,2.77
2022-10-06T01:00:09.805Z,2.37
2022-10-06T01:02:44.841Z,2.57
2022-10-06T01:05:18.639Z,2.80
2022-10-06T01:07:45.615Z,2.20
2022-10-06T01:10:12.447Z,3.07
2022-10-06T01:12:40.154Z,3.00
2022-10-06T01:15:08.034Z,2.57
2022-10-06T01:17:41.473Z,2.53
2022-10-06T01:20:15.508Z,2.47
2022-10-06T01:22:48.195Z,3.70
2022-10-06T01:25:17.211Z,2.73
2022-10-06T01:27:53.520Z,2.60
2022-10-06T01:30:37.610Z,3.40
2022-10-06T01:33:04.872Z,2.30
2022-10-06T01:35:31.624Z,2.23
2022-10-06T01:37:59.690Z,2.60
2022-10-06T01:40:29.135Z,2.27
2022-10-06T01:42:56.660Z,2.37
2022-10-06T01:45:23.435Z,3.20
2022-10-06T01:47:50.782Z,2.13
2022-10-06T01:50:17.594Z,2.30
2022-10-06T01:52:44.690Z,2.37
2022-10-06T01:55:11.448Z,2.60
2022-10-06T01:57:42.425Z,2.30
2022-10-06T02:00:10.833Z,2.80
2022-10-06T02:02:37.804Z,2.37
2022-10-06T02:05:04.780Z,2.53
2022-10-06T02:07:31.707Z,2.83
2022-10-06T02:09:58.398Z,2.40
2022-10-06T02:12:25.164Z,2.70
2022-10-06T02:14:51.851Z,2.47
2022-10-06T02:17:19.635Z,1.87
2022-10-06T02:19:46.456Z,2.10
2022-10-06T02:22:13.184Z,2.10
2022-10-06T02:24:39.961Z,2.27
2022-10-06T02:27:08.009Z,2.23
2022-10-06T02:29:34.744Z,2.27
2022-10-06T02:32:01.593Z,2.60
2022-10-06T02:34:28.847Z,2.43
2022-10-06T02:36:57.744Z,2.60
2022-10-06T02:39:24.477Z,1.70
2022-10-06T02:41:51.319Z,1.87
2022-10-06T02:44:18.131Z,2.47
2022-10-06T02:46:44.933Z,2.20
2022-10-06T02:49:12.349Z,2.50
2022-10-06T02:51:39.070Z,3.50
2022-10-06T02:54:05.951Z,2.97
2022-10-06T02:56:32.698Z,3.47
2022-10-06T02:58:59.929Z,3.97
2022-10-06T03:01:28.104Z,4.30
2022-10-06T03:03:55.838Z,3.80
2022-10-06T03:06:25.236Z,3.47
2022-10-06T03:08:56.763Z,3.97
2022-10-06T03:11:26.079Z,2.60
2022-10-06T03:13:53.282Z,2.17
2022-10-06T03:16:24.708Z,2.17
2022-10-06T03:18:53.994Z,2.70
2022-10-06T03:21:23.318Z,2.27
2022-10-06T03:23:51.840Z,2.00
2022-10-06T03:26:24.469Z,2.07
2022-10-06T03:28:51.162Z,2.23
2022-10-06T03:31:18.104Z,2.30
2022-10-06T03:33:45.090Z,2.10
2022-10-06T03:36:14.443Z,2.00
2022-10-06T03:38:41.680Z,2.10
2022-10-06T03:41:14.212Z,2.47
2022-10-06T03:43:43.430Z,2.50
2022-10-06T03:46:14.775Z,2.50
2022-10-06T03:48:41.934Z,2.33
2022-10-06T03:51:16.419Z,3.27
2022-10-06T03:53:47.944Z,2.10
2022-10-06T03:56:18.230Z,1.80
2022-10-06T03:58:48.960Z,1.90
2022-10-06T04:01:27.911Z,2.27
2022-10-06T04:03:56.770Z,2.10
2022-10-06T04:06:24.794Z,2.27
2022-10-06T04:08:52.419Z,2.27
2022-10-06T04:11:25.301Z,2.27
2022-10-06T04:13:59.879Z,2.77
2022-10-06T04:16:47.604Z,2.60
2022-10-06T04:19:15.821Z,5.00
2022-10-06T04:21:44.244Z,4.40
2022-10-06T04:24:11.911Z,3.90
2022-10-06T04:26:45.069Z,4.23
2022-10-06T04:29:11.988Z,3.50
2022-10-06T04:31:40.917Z,3.27
2022-10-06T04:34:09.916Z,2.80
2022-10-06T04:36:43.681Z,3.00
2022-10-06T04:39:12.318Z,3.43
2022-10-06T04:41:42.174Z,2.83
2022-10-06T04:44:11.104Z,2.23
2022-10-06T04:46:45.524Z,2.20
2022-10-06T04:49:19.028Z,2.00
2022-10-06T04:51:48.067Z,2.00
2022-10-06T04:54:14.944Z,1.60
2022-10-06T04:56:41.708Z,2.53
2022-10-06T04:59:08.491Z,2.40
2022-10-06T05:01:36.979Z,2.80
2022-10-06T05:04:05.924Z,2.77
2022-10-06T05:06:35.721Z,2.57
2022-10-06T05:09:05.543Z,2.20
2022-10-06T05:11:34.081Z,2.10
2022-10-06T05:14:01.452Z,3.33
2022-10-06T05:16:30.676Z,2.00
2022-10-06T05:18:58.589Z,3.27
2022-10-06T05:21:30.880Z,3.10
2022-10-06T05:23:58.436Z,3.63
2022-10-06T05:26:28.082Z,3.27
2022-10-06T05:28:54.858Z,3.83
2022-10-06T05:31:23.902Z,3.70
2022-10-06T05:33:50.782Z,3.50
2022-10-06T05:36:20.307Z,3.57
2022-10-06T05:38:48.336Z,2.77
2022-10-06T05:41:22.091Z,3.00
2022-10-06T05:43:48.959Z,3.67
2022-10-06T05:46:23.989Z,4.50
2022-10-06T05:48:54.841Z,3.80
2022-10-06T05:51:30.113Z,3.33
2022-10-06T05:54:00.812Z,4.23
2022-10-06T05:56:30.933Z,4.00
2022-10-06T05:58:58.922Z,4.73
2022-10-06T06:01:28.759Z,3.30
2022-10-06T06:04:02.694Z,3.83
2022-10-06T06:06:30.774Z,4.00
2022-10-06T06:09:00.775Z,4.10
2022-10-06T06:11:31.427Z,3.50
2022-10-06T06:14:00.334Z,4.20
2022-10-06T06:16:32.683Z,3.90
2022-10-06T06:19:01.519Z,4.10
2022-10-06T06:21:29.220Z,3.27
2022-10-06T06:23:56.494Z,3.20
2022-10-06T06:26:29.241Z,2.50
2022-10-06T06:29:05.281Z,3.00
2022-10-06T06:31:34.684Z,2.17
2022-10-06T06:34:04.756Z,2.33
2022-10-06T06:36:44.458Z,2.53
2022-10-06T06:39:14.200Z,2.20
2022-10-06T06:41:45.115Z,2.13
2022-10-06T06:44:13.981Z,3.13
2022-10-06T06:46:43.426Z,3.17
2022-10-06T06:49:12.096Z,2.43
2022-10-06T06:51:41.555Z,2.63
2022-10-06T06:54:09.897Z,3.00
2022-10-06T06:56:37.521Z,2.87
2022-10-06T06:59:09.091Z,2.07
2022-10-06T07:01:39.696Z,2.90
2022-10-06T07:04:06.544Z,3.50
2022-10-06T07:06:36.681Z,2.50
2022-10-06T07:09:04.049Z,2.80
2022-10-06T07:11:36.000Z,2.90
2022-10-06T07:14:06.044Z,2.57
2022-10-06T07:16:52.575Z,2.50
2022-10-06T07:19:39.223Z,3.40
2022-10-06T07:22:29.755Z,2.73
2022-10-06T07:25:08.565Z,2.97
2022-10-06T07:27:43.478Z,2.60
2022-10-06T07:30:19.138Z,3.17
2022-10-06T07:32:47.335Z,2.43
2022-10-06T07:35:16.204Z,2.93
2022-10-06T07:37:43.612Z,3.00
2022-10-06T07:40:11.165Z,3.70
2022-10-06T07:42:51.846Z,2.80
2022-10-06T07:45:41.922Z,3.20
2022-10-06T07:48:15.326Z,2.63
2022-10-06T07:50:44.448Z,3.37
2022-10-06T07:53:11.927Z,2.93
2022-10-06T07:55:40.510Z,3.83
2022-10-06T07:58:10.665Z,3.30
2022-10-06T08:00:37.493Z,2.93
2022-10-06T08:03:05.810Z,3.13
2022-10-06T08:05:32.769Z,3.17
2022-10-06T08:07:59.611Z,3.80
2022-10-06T08:10:26.478Z,3.00
2022-10-06T08:12:53.304Z,2.80
2022-10-06T08:15:20.138Z,3.17
2022-10-06T08:17:47.002Z,4.13
2022-10-06T08:20:14.667Z,3.27
2022-10-06T08:22:41.466Z,2.70
2022-10-06T08:25:11.582Z,3.27
2022-10-06T08:27:38.844Z,3.60
2022-10-06T08:30:07.352Z,3.30
2022-10-06T08:32:34.764Z,3.33
2022-10-06T08:35:03.924Z,3.30
2022-10-06T08:37:30.735Z,3.50
2022-10-06T08:39:58.961Z,3.17
2022-10-06T08:42:32.066Z,3.10
2022-10-06T08:45:24.096Z,3.07
2022-10-06T08:48:18.390Z,3.47
2022-10-06T08:51:15.304Z,3.13
2022-10-06T08:53:50.348Z,3.20
2022-10-06T08:56:21.849Z,3.87
2022-10-06T08:59:04.196Z,2.83
2022-10-06T09:01:52.386Z,3.20
2022-10-06T09:04:30.637Z,3.10
2022-10-06T09:07:13.462Z,2.80
2022-10-06T09:09:59.196Z,3.30
2022-10-06T09:12:47.059Z,3.77
2022-10-06T09:15:39.826Z,4.33
2022-10-06T09:18:22.214Z,3.33
2022-10-06T09:20:57.307Z,3.40
2022-10-06T09:23:44.541Z,3.00
2022-10-06T09:26:13.210Z,3.50
2022-10-06T09:28:40.403Z,3.90
2022-10-06T09:31:28.509Z,4.93
2022-10-06T09:33:59.680Z,2.87
2022-10-06T09:36:29.492Z,4.40
2022-10-06T09:38:59.063Z,3.63
2022-10-06T09:41:34.400Z,3.80
2022-10-06T09:44:06.410Z,4.17
2022-10-06T09:46:41.806Z,4.23
2022-10-06T09:49:21.507Z,3.33
2022-10-06T09:52:15.382Z,4.47
2022-10-06T09:54:46.777Z,3.30
2022-10-06T09:57:25.025Z,5.57
2022-10-06T09:59:54.555Z,3.77
2022-10-06T10:02:27.391Z,4.03
2022-10-06T10:04:56.098Z,3.30
2022-10-06T10:07:27.935Z,4.67
2022-10-06T10:10:14.028Z,4.67
2022-10-06T10:12:50.372Z,3.70
2022-10-06T10:15:23.225Z,4.77
2022-10-06T10:17:54.031Z,4.53
2022-10-06T10:20:34.582Z,3.53
2022-10-06T10:23:18.649Z,3.70
2022-10-06T10:26:08.200Z,3.87
2022-10-06T10:28:47.244Z,4.27
2022-10-06T10:31:19.057Z,4.47
2022-10-06T10:34:11.843Z,3.00
2022-10-06T10:37:06.123Z,3.70
2022-10-06T10:39:48.093Z,3.27
2022-10-06T10:42:21.960Z,3.97
2022-10-06T10:45:04.838Z,3.70
2022-10-06T10:47:38.952Z,3.63
2022-10-06T10:50:27.616Z,3.70
2022-10-06T10:55:48.177Z,4.50
2022-10-06T10:58:40.034Z,4.40
2022-10-06T11:01:27.505Z,3.93
2022-10-06T11:03:57.755Z,3.60
2022-10-06T11:06:32.625Z,3.77
2022-10-06T11:09:10.959Z,3.40
2022-10-06T11:12:15.384Z,4.63
2022-10-06T11:14:57.933Z,3.77
2022-10-06T11:17:49.458Z,3.30
2022-10-06T11:20:28.345Z,4.60
2022-10-06T11:23:17.932Z,5.50
2022-10-06T11:26:09.862Z,3.97
2022-10-06T11:29:08.562Z,3.43
2022-10-06T11:31:46.266Z,3.17
2022-10-06T11:34:14.144Z,4.77
2022-10-06T11:37:08.288Z,3.60
2022-10-06T11:39:53.764Z,4.13
2022-10-06T11:42:48.953Z,3.50
2022-10-06T11:45:19.686Z,3.43
2022-10-06T11:48:04.295Z,3.37
2022-10-06T11:50:41.309Z,3.00
2022-10-06T11:53:37.211Z,3.40
2022-10-06T11:56:18.829Z,2.83
2022-10-06T11:58:51.996Z,3.37
2022-10-06T12:01:30.846Z,3.47
2022-10-06T12:04:09.620Z,3.50
2022-10-06T12:06:45.159Z,3.37
2022-10-06T12:09:24.525Z,3.53
2022-10-06T12:11:53.239Z,4.43
2022-10-06T12:18:14.629Z,4.03
2022-10-06T12:20:54.042Z,3.67
2022-10-06T12:23:46.500Z,3.77
2022-10-06T12:26:17.372Z,3.00
2022-10-06T12:29:03.456Z,2.93
2022-10-06T12:31:40.360Z,3.63
2022-10-06T12:34:44.511Z,2.93
2022-10-06T12:37:36.905Z,3.03
2022-10-06T12:40:41.390Z,3.47
2022-10-06T12:43:14.459Z,3.10
2022-10-06T12:45:48.399Z,2.97
2022-10-06T12:48:26.951Z,2.73
2022-10-06T12:51:20.761Z,3.07
2022-10-06T12:53:59.612Z,3.73
2022-10-06T12:56:32.487Z,2.83
2022-10-06T12:59:19.872Z,3.07
2022-10-06T13:01:49.450Z,2.30
2022-10-06T13:04:35.006Z,2.70
2022-10-06T13:07:10.003Z,3.10
2022-10-06T13:09:37.410Z,3.07
2022-10-06T13:12:40.612Z,3.00
2022-10-06T13:15:35.531Z,3.10
2022-10-06T13:18:18.489Z,2.83
2022-10-06T13:20:50.433Z,3.03
2022-10-06T13:23:22.111Z,2.80
2022-10-06T13:26:28.178Z,3.40
2022-10-06T13:28:59.624Z,2.73
2022-10-06T13:31:28.852Z,2.20
2022-10-06T13:34:12.830Z,3.20
2022-10-06T13:36:41.978Z,3.10
2022-10-06T13:39:16.130Z,2.60
2022-10-06T13:41:54.602Z,3.00
2022-10-06T13:44:24.765Z,2.90
2022-10-06T13:46:55.179Z,3.20
2022-10-06T13:49:27.657Z,2.47
2022-10-06T13:51:56.969Z,2.83
2022-10-06T13:54:32.488Z,3.20
2022-10-06T13:56:59.314Z,3.13
2022-10-06T13:59:31.084Z,2.53
2022-10-06T14:02:21.221Z,2.87
2022-10-06T14:05:19.204Z,3.03
2022-10-06T14:07:47.503Z,3.10
2022-10-06T14:10:48.413Z,3.20
2022-10-06T14:13:21.125Z,3.73
2022-10-06T14:15:53.666Z,3.23
2022-10-06T14:18:27.086Z,2.03
2022-10-06T14:20:55.705Z,2.37
2022-10-06T14:23:44.181Z,2.87
2022-10-06T14:26:12.982Z,3.10
2022-10-06T14:28:46.019Z,2.73
2022-10-06T14:31:14.580Z,2.33
2022-10-06T14:33:42.173Z,3.20
2022-10-06T14:36:16.697Z,2.53
2022-10-06T14:38:43.908Z,2.60
2022-10-06T14:41:11.497Z,2.30
2022-10-06T14:43:41.626Z,3.60
2022-10-06T14:46:11.922Z,2.20
2022-10-06T14:48:38.756Z,2.50
2022-10-06T14:51:05.706Z,2.97
2022-10-06T14:53:32.984Z,2.43
2022-10-06T14:56:07.938Z,2.70
2022-10-06T14:58:39.689Z,2.47
2022-10-06T15:01:07.944Z,2.80
2022-10-06T15:03:36.437Z,2.33
2022-10-06T15:06:24.958Z,2.93
2022-10-06T15:08:53.125Z,2.20
2022-10-06T15:11:21.548Z,2.53
2022-10-06T15:13:48.939Z,2.90
2022-10-06T15:16:17.464Z,2.20
2022-10-06T15:18:44.795Z,2.40
2022-10-06T15:21:11.709Z,2.10
2022-10-06T15:23:39.446Z,3.00
2022-10-06T15:26:25.058Z,2.23
2022-10-06T15:29:00.603Z,2.27
2022-10-06T15:31:36.079Z,2.30
2022-10-06T15:34:04.556Z,2.63
2022-10-06T15:36:33.799Z,2.40
2022-10-06T15:39:11.972Z,2.50
2022-10-06T15:41:40.719Z,2.83
2022-10-06T15:44:08.569Z,3.37
2022-10-06T15:46:43.888Z,2.20
2022-10-06T15:49:20.943Z,2.80
2022-10-06T15:51:53.220Z,2.70
2022-10-06T15:54:25.200Z,2.50
2022-10-06T15:56:57.917Z,2.07
2022-10-06T15:59:26.160Z,2.90
2022-10-06T16:01:58.247Z,2.50
2022-10-06T16:04:35.791Z,2.30
2022-10-06T16:07:04.306Z,2.37
2022-10-06T16:09:41.999Z,2.67
2022-10-06T16:12:13.669Z,2.27
2022-10-06T16:14:40.789Z,2.80
2022-10-06T16:17:09.670Z,2.40
2022-10-06T16:19:37.463Z,2.10
2022-10-06T16:22:11.269Z,2.20
2022-10-06T16:24:38.075Z,1.77
2022-10-06T16:27:05.460Z,2.57
2022-10-06T16:29:32.377Z,2.33
2022-10-06T16:31:59.328Z,2.13
2022-10-06T16:34:26.838Z,2.27
2022-10-06T16:36:53.725Z,2.23
2022-10-06T16:39:22.103Z,2.27
2022-10-06T16:41:49.796Z,2.47
2022-10-06T16:44:17.034Z,2.13
2022-10-06T16:46:44.648Z,2.73
2022-10-06T16:49:11.902Z,2.30
2022-10-06T16:51:44.477Z,2.30
2022-10-06T16:54:13.942Z,2.33
2022-10-06T16:56:45.997Z,2.53
2022-10-06T16:59:18.488Z,2.93
2022-10-06T17:01:47.587Z,2.70
2022-10-06T17:04:20.126Z,2.93
2022-10-06T17:06:52.463Z,2.47
2022-10-06T17:09:21.152Z,2.20
2022-10-06T17:11:59.136Z,2.50
2022-10-06T17:14:27.319Z,2.50
2022-10-06T17:16:56.123Z,2.67
2022-10-06T17:19:25.660Z,2.73
2022-10-06T17:21:58.595Z,2.57
2022-10-06T17:24:28.235Z,2.77
2022-10-06T17:26:56.781Z,2.33
2022-10-06T17:29:25.950Z,3.03
2022-10-06T17:31:56.256Z,2.80
2022-10-06T17:34:26.499Z,2.87
2022-10-06T17:36:57.519Z,2.83
2022-10-06T17:39:24.760Z,2.90
2022-10-06T17:41:53.485Z,2.90
2022-10-06T17:44:23.740Z,3.37
2022-10-06T17:46:53.931Z,2.93
2022-10-06T17:49:22.518Z,2.53
2022-10-06T17:51:50.523Z,3.37
2022-10-06T17:54:20.112Z,3.03
2022-10-06T17:56:51.131Z,3.10
2022-10-06T17:59:23.641Z,2.50
2022-10-06T18:01:51.753Z,2.57
2022-10-06T18:04:19.765Z,2.63
2022-10-06T18:06:48.541Z,2.87
2022-10-06T18:09:16.280Z,2.80
2022-10-06T18:11:47.796Z,2.83
2022-10-06T18:14:18.652Z,2.57
2022-10-06T18:16:52.090Z,2.63
2022-10-06T18:19:25.983Z,2.53
2022-10-06T18:21:54.712Z,3.43
2022-10-06T18:24:24.236Z,2.73
2022-10-06T18:26:53.399Z,2.50
2022-10-06T18:29:24.003Z,3.47
2022-10-06T18:31:52.775Z,3.37
2022-10-06T18:37:08.060Z,3.07
2022-10-06T18:39:34.977Z,3.07
2022-10-06T18:42:03.762Z,2.77
2022-10-06T18:44:51.296Z,3.37
2022-10-06T18:47:36.896Z,2.73
2022-10-06T18:50:04.113Z,3.20
2022-10-06T18:52:30.875Z,2.90
2022-10-06T18:54:57.633Z,2.70
2022-10-06T18:57:27.670Z,2.70
2022-10-06T18:59:55.235Z,2.70
2022-10-06T19:02:22.947Z,3.30
2022-10-06T19:04:52.479Z,2.87
2022-10-06T19:07:19.193Z,3.03
2022-10-06T19:09:47.073Z,3.97
2022-10-06T19:12:14.261Z,2.83
2022-10-06T19:14:47.332Z,3.37
2022-10-06T19:17:15.578Z,2.70
2022-10-06T19:19:51.354Z,3.47
2022-10-06T19:22:21.722Z,2.77
2022-10-06T19:24:48.812Z,2.90
2022-10-06T19:27:24.147Z,2.07
2022-10-06T19:29:54.546Z,3.23
2022-10-06T19:32:28.849Z,2.73
2022-10-06T19:34:59.087Z,3.00
2022-10-06T19:37:28.358Z,3.10
2022-10-06T19:39:55.497Z,2.80
2022-10-06T19:42:40.906Z,3.03
2022-10-06T19:45:09.633Z,3.13
2022-10-06T19:47:36.460Z,2.90
2022-10-06T19:50:11.303Z,2.43
2022-10-06T19:52:39.463Z,3.40
2022-10-06T19:55:06.633Z,3.17
2022-10-06T19:57:40.008Z,3.07
2022-10-06T20:00:07.522Z,2.90
2022-10-06T20:02:37.400Z,3.47
2022-10-06T20:05:06.992Z,3.27
2022-10-06T20:07:33.843Z,3.10
2022-10-06T20:10:00.667Z,3.47
2022-10-06T20:12:28.382Z,3.50
2022-10-06T20:14:58.200Z,3.50
2022-10-06T20:17:25.266Z,3.77
2022-10-06T20:19:57.330Z,3.93
2022-10-06T20:22:24.955Z,3.20
2022-10-06T20:24:52.248Z,2.77
2022-10-06T20:27:19.150Z,3.00
2022-10-06T20:29:47.034Z,3.60
2022-10-06T20:32:14.307Z,3.27
2022-10-06T20:34:41.354Z,4.13
2022-10-06T20:37:08.654Z,4.37
2022-10-06T20:39:53.752Z,3.33
2022-10-06T20:42:23.008Z,4.10
2022-10-06T20:44:50.008Z,3.47
2022-10-06T20:47:17.335Z,3.33
2022-10-06T20:49:44.571Z,3.03
2022-10-06T20:52:16.422Z,3.17
2022-10-06T20:54:43.298Z,2.93
2022-10-06T20:57:10.122Z,4.10
2022-10-06T20:59:38.416Z,3.60
2022-10-06T21:02:06.935Z,3.73
2022-10-06T21:04:34.767Z,2.70
2022-10-06T21:07:05.614Z,3.23
2022-10-06T21:09:32.610Z,4.00
2022-10-06T21:11:59.680Z,3.80
2022-10-06T21:14:26.607Z,3.53
2022-10-06T21:16:53.424Z,3.40
2022-10-06T21:19:20.299Z,4.27
2022-10-06T21:21:51.718Z,4.53
2022-10-06T21:24:19.520Z,3.67
2022-10-06T21:26:46.276Z,3.97
2022-10-06T21:29:15.995Z,4.63
2022-10-06T21:31:44.492Z,3.20
2022-10-06T21:34:11.626Z,3.60
2022-10-06T21:36:38.560Z,4.27
2022-10-06T21:39:06.407Z,3.03
2022-10-06T21:41:40.687Z,3.47
2022-10-06T21:44:14.816Z,3.30
2022-10-06T21:46:47.807Z,3.33
2022-10-06T21:49:19.533Z,3.40
2022-10-06T21:51:50.251Z,3.80
2022-10-06T21:54:20.233Z,4.10
2022-10-06T21:56:47.570Z,3.50
2022-10-06T21:59:14.516Z,3.53
2022-10-06T22:01:44.014Z,3.73
2022-10-06T22:04:15.068Z,3.80
2022-10-06T22:06:44.198Z,3.87
2022-10-06T22:09:15.496Z,4.03
2022-10-06T22:11:42.687Z,3.70
2022-10-06T22:14:12.397Z,4.13
2022-10-06T22:16:39.317Z,3.93
2022-10-06T22:19:09.413Z,4.67
2022-10-06T22:21:38.661Z,3.27
2022-10-06T22:24:08.671Z,4.60
2022-10-06T22:26:37.467Z,3.57
2022-10-06T22:29:07.039Z,4.03
2022-10-06T22:31:34.224Z,3.33
2022-10-06T22:34:04.711Z,4.03
2022-10-06T22:36:31.802Z,3.77
2022-10-06T22:38:59.458Z,3.90
2022-10-06T22:41:26.674Z,4.20
2022-10-06T22:43:57.568Z,3.83
2022-10-06T22:46:29.887Z,4.33
2022-10-06T22:48:57.282Z,3.80
2022-10-06T22:51:24.447Z,4.07
2022-10-06T22:53:58.235Z,3.93
2022-10-06T22:56:26.722Z,3.67
2022-10-06T22:58:53.545Z,4.17
2022-10-06T23:01:20.621Z,4.80
2022-10-06T23:03:47.799Z,3.63
2022-10-06T23:06:17.339Z,3.67
2022-10-06T23:08:44.677Z,3.70
2022-10-06T23:11:14.098Z,4.67
2022-10-06T23:13:41.557Z,3.77
2022-10-06T23:16:12.286Z,3.77
2022-10-06T23:18:41.235Z,3.77
2022-10-06T23:21:10.318Z,4.23
2022-10-06T23:23:37.473Z,3.30
2022-10-06T23:26:09.814Z,3.67
2022-10-06T23:28:37.183Z,4.27
2022-10-06T23:31:05.563Z,3.53
2022-10-06T23:33:33.075Z,3.80
2022-10-06T23:36:05.227Z,4.53
2022-10-06T23:38:32.220Z,3.40
2022-10-06T23:40:58.909Z,4.07
2022-10-06T23:43:25.663Z,3.33
2022-10-06T23:45:52.532Z,3.73
2022-10-06T23:48:19.400Z,4.73
2022-10-06T23:51:04.279Z,4.23
2022-10-06T23:53:32.023Z,4.00
2022-10-06T23:55:59.022Z,4.13
2022-10-06T23:58:26.593Z,4.27
